Time;durP1;ratioP1;P1;durP2;ratioP2;P2;SDS_P1;SDS_P2;PMS_P1;PMS_P2;Temp;Humidity;BMP_temperature;BMP_pressure;BME280_temperature;BME280_humidity;BME280_pressure;Samples;Min_cycle;Max_cycle;Signal;HPM_P1;HPM_P2
2021/01/13 00:00:08;;;;;;;21.65;14.15;;;-0.80;98.00;;;;;;5081715;28;20077;-68
2021/01/13 00:02:37;;;;;;;18.35;11.63;;;-0.90;98.00;;;;;;5076159;28;20329;-68
2021/01/13 00:05:03;;;;;;;16.25;9.98;;;-1.00;98.00;;;;;;5077195;28;20036;-68
2021/01/13 00:07:28;;;;;;;13.57;9.27;;;-1.10;98.00;;;;;;5084680;28;20012;-66
2021/01/13 00:09:54;;;;;;;16.27;8.60;;;-1.20;98.00;;;;;;5082661;28;20035;-68
2021/01/13 00:12:20;;;;;;;15.48;9.88;;;-1.20;98.00;;;;;;5077007;28;20090;-67
2021/01/13 00:14:46;;;;;;;13.07;10.00;;;-1.20;98.00;;;;;;5079714;28;20024;-68
2021/01/13 00:17:11;;;;;;;14.65;10.23;;;-1.20;98.00;;;;;;5086591;28;20049;-67
2021/01/13 00:19:37;;;;;;;15.75;10.07;;;-1.40;98.00;;;;;;5080130;28;20016;-67
2021/01/13 00:22:05;;;;;;;14.18;8.93;;;-1.50;98.00;;;;;;5083773;28;20425;-67
2021/01/13 00:24:32;;;;;;;18.55;10.23;;;-1.50;98.00;;;;;;5086327;28;20361;-67
2021/01/13 00:27:02;;;;;;;12.27;8.35;;;-1.50;98.00;;;;;;5090695;28;20037;-68
2021/01/13 00:29:29;;;;;;;14.25;9.18;;;-1.50;98.00;;;;;;5087957;28;20103;-67
2021/01/13 00:31:59;;;;;;;12.45;8.52;;;-1.40;98.00;;;;;;5087275;28;20107;-67
2021/01/13 00:34:28;;;;;;;12.57;8.40;;;-1.40;98.00;;;;;;5082644;28;20028;-67
2021/01/13 00:36:55;;;;;;;15.40;8.23;;;-1.50;98.00;;;;;;5080595;28;20085;-66
2021/01/13 00:39:23;;;;;;;15.80;7.75;;;-1.70;98.00;;;;;;5079199;28;20483;-67
2021/01/13 00:41:49;;;;;;;12.75;8.50;;;-2.00;98.00;;;;;;5083868;28;20020;-66
2021/01/13 00:44:15;;;;;;;11.13;7.32;;;-2.20;98.00;;;;;;5085526;28;20024;-67
2021/01/13 00:46:43;;;;;;;12.68;8.23;;;-2.30;98.00;;;;;;5085668;28;20033;-68
2021/01/13 00:49:09;;;;;;;13.65;8.73;;;-2.20;98.00;;;;;;5091731;28;20478;-66
2021/01/13 00:51:41;;;;;;;10.88;7.43;;;-2.00;98.00;;;;;;5082911;28;20452;-68
2021/01/13 00:54:08;;;;;;;11.32;8.10;;;-2.00;98.00;;;;;;5093137;28;20103;-66
2021/01/13 00:56:34;;;;;;;12.45;7.10;;;-2.10;98.00;;;;;;5081616;28;20497;-68
2021/01/13 00:59:01;;;;;;;12.40;6.13;;;-2.10;98.00;;;;;;5086054;28;20037;-68
2021/01/13 01:01:27;;;;;;;11.27;7.28;;;-2.10;98.00;;;;;;5091520;28;20049;-68
2021/01/13 01:03:54;;;;;;;12.13;7.60;;;-2.20;98.00;;;;;;5088378;28;20311;-68
2021/01/13 01:06:20;;;;;;;10.30;6.20;;;-2.40;98.00;;;;;;5084791;28;20016;-67
2021/01/13 01:08:46;;;;;;;8.27;5.95;;;-2.30;98.00;;;;;;5088825;28;20310;-66
2021/01/13 01:11:14;;;;;;;12.55;6.45;;;-2.30;98.00;;;;;;5088195;28;20035;-67
2021/01/13 01:13:40;;;;;;;11.70;7.57;;;-2.30;98.00;;;;;;5092249;28;20408;-68
2021/01/13 01:16:05;;;;;;;10.02;6.50;;;-2.30;98.00;;;;;;5074919;28;20031;-66
2021/01/13 01:18:31;;;;;;;9.55;6.70;;;-2.30;98.00;;;;;;5075570;28;20040;-67
2021/01/13 01:20:57;;;;;;;10.32;7.32;;;-2.30;98.00;;;;;;5088420;28;20103;-68
2021/01/13 01:23:25;;;;;;;18.77;8.60;;;-2.40;98.00;;;;;;5087750;28;20058;-69
2021/01/13 01:25:51;;;;;;;15.75;9.02;;;-2.20;98.00;;;;;;5089987;28;20031;-68
2021/01/13 01:28:16;;;;;;;14.23;8.23;;;-2.10;98.00;;;;;;5079619;28;20107;-68
2021/01/13 01:30:42;;;;;;;13.70;8.65;;;-2.00;98.00;;;;;;5087372;28;20052;-67
2021/01/13 01:33:08;;;;;;;13.65;9.02;;;-1.80;98.00;;;;;;5091146;28;20078;-68
2021/01/13 01:35:33;;;;;;;13.15;9.13;;;-1.80;98.00;;;;;;5091861;28;20470;-68
2021/01/13 01:37:59;;;;;;;12.90;9.70;;;-1.60;98.00;;;;;;5092091;28;20025;-66
2021/01/13 01:40:25;;;;;;;15.00;9.35;;;-1.50;98.00;;;;;;5086929;28;20028;-67
2021/01/13 01:42:53;;;;;;;14.70;9.80;;;-1.50;98.00;;;;;;5087405;28;20388;-68
2021/01/13 01:45:29;;;;;;;13.35;9.50;;;-1.40;98.00;;;;;;5085356;28;20031;-70
2021/01/13 01:47:58;;;;;;;15.85;10.05;;;-1.40;98.00;;;;;;5083604;28;20106;-67
2021/01/13 01:50:35;;;;;;;11.48;8.20;;;-1.50;98.00;;;;;;5094156;28;20063;-69
2021/01/13 01:53:17;;;;;;;16.73;9.80;;;-1.50;98.00;;;;;;5084933;28;20329;-68
2021/01/13 01:56:12;;;;;;;14.40;10.07;;;-1.40;98.00;;;;;;5086559;28;20028;-68
2021/01/13 01:58:38;;;;;;;15.73;10.68;;;-1.40;98.00;;;;;;5079922;28;20396;-68
2021/01/13 02:01:05;;;;;;;15.40;10.00;;;-1.30;98.00;;;;;;5082466;28;20069;-68
2021/01/13 02:03:48;;;;;;;14.05;10.13;;;-1.10;98.00;;;;;;5083065;28;20339;-68
2021/01/13 02:06:16;;;;;;;15.75;10.43;;;-1.10;98.00;;;;;;5083862;28;20056;-67
2021/01/13 02:08:43;;;;;;;19.50;8.88;;;-1.10;98.00;;;;;;5077614;28;20032;-67
2021/01/13 02:11:17;;;;;;;12.02;9.05;;;-1.00;98.00;;;;;;5083471;28;20112;-67
2021/01/13 02:13:47;;;;;;;13.75;8.18;;;-1.00;98.00;;;;;;5082559;28;20024;-68
2021/01/13 02:16:17;;;;;;;10.30;7.57;;;-1.00;98.00;;;;;;5082073;28;20024;-68
2021/01/13 02:18:45;;;;;;;10.32;6.63;;;-1.00;98.00;;;;;;5081356;28;20552;-69
2021/01/13 02:21:19;;;;;;;11.38;7.60;;;-0.90;98.00;;;;;;5085682;28;20023;-67
2021/01/13 02:24:08;;;;;;;14.48;7.45;;;-0.90;98.00;;;;;;5087386;28;20135;-68
2021/01/13 02:27:05;;;;;;;9.35;6.82;;;-0.90;98.00;;;;;;5077366;28;20429;-67
2021/01/13 02:29:52;;;;;;;10.55;7.18;;;-0.90;98.00;;;;;;5080233;28;20425;-69
2021/01/13 02:32:29;;;;;;;8.93;6.25;;;-0.90;98.00;;;;;;5084763;28;20036;-67
2021/01/13 02:35:14;;;;;;;9.65;6.10;;;-0.90;98.00;;;;;;5084883;28;20024;-68
2021/01/13 02:38:03;;;;;;;11.13;6.88;;;-0.90;98.00;;;;;;5087914;28;20032;-67
2021/01/13 02:40:32;;;;;;;9.60;6.53;;;-0.90;98.00;;;;;;5082750;28;20441;-68
2021/01/13 02:43:35;;;;;;;9.82;6.07;;;-0.90;98.00;;;;;;5079650;28;20020;-67
2021/01/13 02:46:15;;;;;;;7.88;5.13;;;-0.80;98.00;;;;;;5087015;28;20031;-67
2021/01/13 02:48:41;;;;;;;6.15;4.13;;;-0.80;98.00;;;;;;5085410;28;20034;-68
2021/01/13 02:51:20;;;;;;;6.00;3.63;;;-0.80;98.00;;;;;;5085268;28;20024;-68
2021/01/13 02:53:54;;;;;;;6.47;4.35;;;-0.70;98.00;;;;;;5078800;28;20032;-68
2021/01/13 02:56:33;;;;;;;8.82;4.72;;;-0.80;98.00;;;;;;5091751;28;20488;-69
2021/01/13 02:59:10;;;;;;;8.23;4.63;;;-0.70;98.00;;;;;;5081691;28;20102;-67
2021/01/13 03:01:40;;;;;;;11.77;4.70;;;-0.80;98.00;;;;;;5094171;28;20362;-68
2021/01/13 03:04:07;;;;;;;6.53;4.35;;;-0.80;98.00;;;;;;5086696;28;20027;-66
2021/01/13 03:06:39;;;;;;;7.85;4.90;;;-0.70;98.00;;;;;;5077543;28;20105;-69
2021/01/13 03:09:07;;;;;;;5.80;3.83;;;-0.70;98.00;;;;;;5082455;28;20060;-67
2021/01/13 03:11:34;;;;;;;8.82;4.97;;;-0.70;98.00;;;;;;5085395;28;20034;-69
2021/01/13 03:14:18;;;;;;;6.43;4.22;;;-0.80;98.00;;;;;;5090271;28;20109;-67
2021/01/13 03:16:46;;;;;;;7.82;4.07;;;-0.70;98.00;;;;;;5093487;28;20020;-68
2021/01/13 03:19:26;;;;;;;7.22;3.80;;;-0.70;98.00;;;;;;5091363;28;20063;-67
2021/01/13 03:21:57;;;;;;;7.75;4.07;;;-0.70;98.00;;;;;;5093940;28;20035;-67
2021/01/13 03:24:39;;;;;;;5.88;3.83;;;-0.70;98.00;;;;;;5087390;28;20028;-68
2021/01/13 03:27:07;;;;;;;5.40;3.45;;;-0.70;98.00;;;;;;5080989;28;20183;-68
2021/01/13 03:29:36;;;;;;;8.75;3.63;;;-0.70;98.00;;;;;;5080871;28;20123;-68
2021/01/13 03:32:13;;;;;;;7.18;4.03;;;-0.70;98.00;;;;;;5096006;28;20096;-67
2021/01/13 03:35:01;;;;;;;7.40;3.80;;;-0.70;98.00;;;;;;5080589;28;20032;-67
2021/01/13 03:37:55;;;;;;;8.07;3.53;;;-0.70;98.00;;;;;;5076360;28;20029;-68
2021/01/13 03:40:23;;;;;;;5.60;3.00;;;-0.80;98.00;;;;;;5083226;28;20494;-67
2021/01/13 03:42:54;;;;;;;5.90;3.72;;;-0.80;98.00;;;;;;5079995;28;20330;-68
2021/01/13 03:45:37;;;;;;;6.82;3.15;;;-0.80;98.00;;;;;;5097001;28;20031;-69
2021/01/13 03:48:10;;;;;;;4.90;3.30;;;-0.80;98.00;;;;;;5082898;28;20028;-69
2021/01/13 03:50:47;;;;;;;6.43;2.87;;;-0.80;98.00;;;;;;5077960;28;20039;-69
2021/01/13 03:53:15;;;;;;;4.63;2.85;;;-0.80;98.00;;;;;;5089283;28;20024;-68
2021/01/13 03:55:42;;;;;;;3.88;2.75;;;-0.80;98.00;;;;;;5088977;28;20028;-68
2021/01/13 03:58:08;;;;;;;5.35;3.35;;;-0.90;98.00;;;;;;5085747;28;20107;-69
2021/01/13 04:00:59;;;;;;;5.95;3.47;;;-1.00;98.00;;;;;;5084118;28;20095;-69
2021/01/13 04:04:03;;;;;;;5.38;2.88;;;-1.10;98.00;;;;;;5079632;28;20028;-69
2021/01/13 04:06:29;;;;;;;5.05;3.08;;;-1.20;98.00;;;;;;5074314;28;20110;-69
2021/01/13 04:09:00;;;;;;;7.43;3.60;;;-1.30;98.00;;;;;;5082232;28;20032;-69
2021/01/13 04:11:35;;;;;;;5.00;3.42;;;-1.20;98.00;;;;;;5091069;28;20397;-68
2021/01/13 04:14:02;;;;;;;7.13;4.15;;;-1.20;98.00;;;;;;5087736;28;20028;-68
2021/01/13 04:16:38;;;;;;;9.00;3.58;;;-1.10;98.00;;;;;;5081266;28;20480;-70
2021/01/13 04:19:05;;;;;;;4.50;3.38;;;-1.10;98.00;;;;;;5081982;28;20067;-69
2021/01/13 04:21:32;;;;;;;6.57;3.80;;;-1.10;98.00;;;;;;5081030;28;20302;-69
2021/01/13 04:24:00;;;;;;;5.25;3.67;;;-1.10;98.00;;;;;;5078455;28;20059;-69
2021/01/13 04:26:27;;;;;;;5.38;3.65;;;-1.10;98.00;;;;;;5086388;28;20440;-69
2021/01/13 04:28:53;;;;;;;6.18;3.92;;;-1.10;98.00;;;;;;5084685;28;20396;-69
2021/01/13 04:31:19;;;;;;;8.82;4.70;;;-1.00;98.00;;;;;;5082928;28;20147;-69
2021/01/13 04:33:46;;;;;;;6.78;4.20;;;-1.00;98.00;;;;;;5094425;28;20034;-68
2021/01/13 04:36:12;;;;;;;12.00;5.18;;;-0.90;98.00;;;;;;5095134;28;20020;-68
2021/01/13 04:38:38;;;;;;;10.30;5.18;;;-0.90;98.00;;;;;;5083019;28;20028;-68
2021/01/13 04:41:05;;;;;;;5.93;4.40;;;-0.80;98.00;;;;;;5078645;28;20027;-69
2021/01/13 04:43:49;;;;;;;9.07;5.03;;;-0.80;98.00;;;;;;5078249;28;20020;-68
2021/01/13 04:46:38;;;;;;;6.93;4.55;;;-0.80;98.00;;;;;;5082308;28;20123;-67
2021/01/13 04:49:12;;;;;;;8.82;4.97;;;-0.80;98.00;;;;;;5088475;28;20024;-68
2021/01/13 04:51:39;;;;;;;10.35;5.75;;;-0.80;98.00;;;;;;5080425;28;20016;-68
2021/01/13 04:54:07;;;;;;;7.00;4.88;;;-0.80;98.00;;;;;;5094750;28;20028;-68
2021/01/13 04:56:52;;;;;;;8.10;4.55;;;-0.70;98.00;;;;;;5092084;28;20370;-67
2021/01/13 04:59:20;;;;;;;7.43;5.45;;;-0.70;98.00;;;;;;5082986;28;20314;-67
2021/01/13 05:01:52;;;;;;;7.78;4.95;;;-0.70;98.00;;;;;;5078194;28;20055;-67
2021/01/13 05:04:27;;;;;;;7.13;4.97;;;-0.70;98.00;;;;;;5075990;28;20028;-67
2021/01/13 05:07:19;;;;;;;11.38;5.13;;;-0.70;98.00;;;;;;5076822;28;20033;-67
2021/01/13 05:09:58;;;;;;;8.85;5.47;;;-0.70;98.00;;;;;;5087741;28;20107;-67
2021/01/13 05:12:27;;;;;;;8.50;6.03;;;-0.70;98.00;;;;;;5079919;28;20020;-68
2021/01/13 05:14:59;;;;;;;11.43;6.00;;;-0.70;98.00;;;;;;5090902;28;20032;-69
2021/01/13 05:17:35;;;;;;;7.45;4.93;;;-0.70;98.00;;;;;;5088768;28;20404;-68
2021/01/13 05:20:03;;;;;;;10.07;5.30;;;-0.70;98.00;;;;;;5086910;28;20031;-67
2021/01/13 05:22:34;;;;;;;11.23;5.88;;;-0.80;98.00;;;;;;5087511;28;20016;-69
2021/01/13 05:25:09;;;;;;;8.23;5.47;;;-0.80;98.00;;;;;;5077799;28;20025;-68
2021/01/13 05:27:44;;;;;;;8.23;5.18;;;-0.70;98.00;;;;;;5079986;28;20016;-69
2021/01/13 05:30:10;;;;;;;11.15;6.13;;;-0.70;98.00;;;;;;5082965;28;20413;-69
2021/01/13 05:32:40;;;;;;;10.13;6.72;;;-0.70;98.00;;;;;;5083860;28;20020;-67
2021/01/13 05:35:06;;;;;;;12.13;6.10;;;-0.60;98.00;;;;;;5086870;28;20107;-67
2021/01/13 05:37:49;;;;;;;9.15;5.85;;;-0.60;98.00;;;;;;5076379;28;20458;-68
2021/01/13 05:40:18;;;;;;;10.25;5.95;;;-0.60;98.00;;;;;;5086752;28;20023;-67
2021/01/13 05:42:45;;;;;;;11.25;5.70;;;-0.60;98.00;;;;;;5090592;28;20035;-67
2021/01/13 05:45:17;;;;;;;9.55;6.05;;;-0.60;98.00;;;;;;5085689;28;20024;-67
2021/01/13 05:48:00;;;;;;;11.02;6.28;;;-0.60;98.00;;;;;;5075366;28;20017;-69
2021/01/13 05:50:29;;;;;;;11.20;5.93;;;-0.60;98.00;;;;;;5076645;28;20043;-68
2021/01/13 05:52:55;;;;;;;11.18;7.47;;;-0.70;98.00;;;;;;5087769;28;20024;-67
2021/01/13 05:55:23;;;;;;;12.10;6.88;;;-0.70;98.00;;;;;;5085379;28;20035;-69
2021/01/13 05:57:53;;;;;;;11.80;7.32;;;-0.60;98.00;;;;;;5085611;28;20094;-69
2021/01/13 06:00:19;;;;;;;13.30;8.55;;;-0.60;98.00;;;;;;5083687;28;20012;-70
2021/01/13 06:02:47;;;;;;;16.25;7.90;;;-0.60;98.00;;;;;;5074932;28;20020;-68
2021/01/13 06:05:13;;;;;;;16.30;10.60;;;-0.60;98.00;;;;;;5075815;28;20024;-67
2021/01/13 06:07:45;;;;;;;20.33;11.13;;;-0.60;98.00;;;;;;5077186;28;20017;-68
2021/01/13 06:10:12;;;;;;;13.95;9.57;;;-0.60;98.00;;;;;;5085868;28;20448;-68
2021/01/13 06:12:45;;;;;;;10.10;6.80;;;-0.60;98.00;;;;;;5076219;28;20021;-68
2021/01/13 06:15:12;;;;;;;;;;;-0.50;98.00;;;;;;5080144;28;20017;-68
2021/01/13 06:17:49;;;;;;;11.52;7.50;;;-0.50;98.00;;;;;;5086371;28;19969;-68
2021/01/13 06:20:25;;;;;;;13.05;6.90;;;-0.50;98.00;;;;;;5077981;28;20029;-69
2021/01/13 06:22:52;;;;;;;15.18;6.97;;;-0.50;98.00;;;;;;5081130;28;20349;-69
2021/01/13 06:25:26;;;;;;;13.65;7.45;;;-0.50;98.00;;;;;;5080596;28;20032;-69
2021/01/13 06:28:29;;;;;;;10.95;6.38;;;-0.50;98.00;;;;;;5087833;28;20024;-68
2021/01/13 06:31:04;;;;;;;11.77;6.80;;;-0.40;98.00;;;;;;5090989;28;20035;-68
2021/01/13 06:33:35;;;;;;;12.43;7.50;;;-0.40;98.00;;;;;;5082645;28;20039;-67
2021/01/13 06:36:39;;;;;;;16.52;7.43;;;-0.40;98.00;;;;;;5090722;28;20028;-68
2021/01/13 06:39:06;;;;;;;9.82;5.97;;;-0.40;98.00;;;;;;5087134;28;20390;-67
2021/01/13 06:41:48;;;;;;;13.70;7.03;;;-0.40;98.00;;;;;;5093402;28;20020;-69
2021/01/13 06:44:14;;;;;;;14.15;7.75;;;-0.40;98.00;;;;;;5090082;28;20028;-69
2021/01/13 06:46:40;;;;;;;12.00;7.25;;;-0.40;98.00;;;;;;5082594;28;20028;-69
2021/01/13 06:49:21;;;;;;;11.77;7.80;;;-0.40;98.00;;;;;;5085398;28;20028;-68
2021/01/13 06:51:52;;;;;;;13.25;8.45;;;-0.40;98.00;;;;;;5086973;28;20028;-69
2021/01/13 06:54:21;;;;;;;13.32;9.20;;;-0.40;98.00;;;;;;5078589;28;20042;-68
2021/01/13 06:56:52;;;;;;;12.05;8.05;;;-0.40;98.00;;;;;;5087501;28;20470;-70
2021/01/13 06:59:23;;;;;;;13.35;8.20;;;-0.40;98.00;;;;;;5083401;28;20354;-68
2021/01/13 07:01:59;;;;;;;12.65;8.55;;;-0.40;98.00;;;;;;5079876;28;20020;-69
2021/01/13 07:04:26;;;;;;;17.13;10.02;;;-0.50;98.00;;;;;;5090158;28;20028;-68
2021/01/13 07:07:06;;;;;;;16.08;8.45;;;-0.50;98.00;;;;;;5084157;28;20073;-71
2021/01/13 07:09:36;;;;;;;12.18;8.20;;;-0.50;98.00;;;;;;5090384;28;20519;-71
2021/01/13 07:12:25;;;;;;;12.75;8.73;;;-0.50;98.00;;;;;;5093637;28;20020;-71
2021/01/13 07:14:55;;;;;;;13.40;8.55;;;-0.60;98.00;;;;;;5094161;28;20525;-70
2021/01/13 07:17:23;;;;;;;12.43;8.35;;;-0.60;98.00;;;;;;5077902;28;20053;-71
2021/01/13 07:19:54;;;;;;;16.63;9.90;;;-0.50;98.00;;;;;;5080117;28;20017;-70
2021/01/13 07:22:24;;;;;;;17.00;10.68;;;-0.50;98.00;;;;;;5076528;28;20035;-69
2021/01/13 07:24:54;;;;;;;18.63;11.25;;;-0.50;98.00;;;;;;5077627;28;20059;-72
2021/01/13 07:27:21;;;;;;;18.65;11.75;;;-0.50;98.00;;;;;;5091185;28;20028;-70
2021/01/13 07:29:50;;;;;;;14.60;11.07;;;-0.60;98.00;;;;;;5091363;28;20017;-71
2021/01/13 07:32:21;;;;;;;19.50;11.65;;;-0.60;98.00;;;;;;5077678;28;20032;-71
2021/01/13 07:34:56;;;;;;;16.92;11.15;;;-0.60;98.00;;;;;;5087686;28;20455;-71
2021/01/13 07:37:24;;;;;;;17.38;9.52;;;-0.50;98.00;;;;;;5095295;28;20025;-70
2021/01/13 07:39:58;;;;;;;12.93;8.77;;;-0.60;98.00;;;;;;5093809;28;20024;-71
2021/01/13 07:42:34;;;;;;;14.13;9.63;;;-0.50;98.00;;;;;;5076464;28;20028;-69
2021/01/13 07:45:18;;;;;;;16.80;10.35;;;-0.50;98.00;;;;;;5086573;28;20062;-70
2021/01/13 07:47:53;;;;;;;16.02;9.35;;;-0.50;98.00;;;;;;5094040;28;20023;-69
2021/01/13 07:50:18;;;;;;;14.77;8.77;;;-0.50;98.00;;;;;;5090063;28;20031;-69
2021/01/13 07:52:49;;;;;;;13.50;9.25;;;-0.50;98.00;;;;;;5096229;28;20414;-68
2021/01/13 07:55:17;;;;;;;11.55;8.70;;;-0.50;98.00;;;;;;5086976;28;20364;-71
2021/01/13 07:57:52;;;;;;;16.73;8.38;;;-0.50;98.00;;;;;;5092132;28;20021;-70
2021/01/13 08:00:28;;;;;;;13.25;9.32;;;-0.50;98.00;;;;;;5094797;28;20020;-70
2021/01/13 08:03:31;;;;;;;11.60;8.27;;;-0.40;98.00;;;;;;5079928;28;20406;-70
2021/01/13 08:06:24;;;;;;;15.85;9.95;;;-0.40;98.00;;;;;;5078162;28;20025;-70
2021/01/13 08:09:19;;;;;;;11.27;8.68;;;-0.40;98.00;;;;;;5075386;28;20070;-72
2021/01/13 08:12:03;;;;;;;14.70;9.13;;;-0.40;98.00;;;;;;5076994;28;20056;-69
2021/01/13 08:14:40;;;;;;;;;;;-0.30;98.00;;;;;;5081766;28;20020;-70
2021/01/13 08:17:16;;;;;;;14.10;8.32;;;-0.20;98.00;;;;;;5096552;28;19951;-71
2021/01/13 08:20:04;;;;;;;12.32;8.25;;;-0.20;98.00;;;;;;5092045;28;20099;-70
2021/01/13 08:22:30;;;;;;;17.13;8.70;;;-0.10;98.00;;;;;;5089917;28;20329;-69
2021/01/13 08:25:02;;;;;;;14.02;8.48;;;-0.10;98.00;;;;;;5091852;28;20615;-71
2021/01/13 08:27:31;;;;;;;10.88;7.97;;;0.00;98.00;;;;;;5087345;28;20028;-69
2021/01/13 08:29:58;;;;;;;14.82;8.02;;;0.00;98.00;;;;;;5094060;28;20118;-70
2021/01/13 08:32:39;;;;;;;14.27;7.55;;;0.10;98.00;;;;;;5092132;28;20032;-70
2021/01/13 08:35:05;;;;;;;13.98;8.00;;;0.20;98.00;;;;;;5076199;28;20024;-71
2021/01/13 08:37:33;;;;;;;11.07;6.60;;;0.20;98.00;;;;;;5079551;28;20023;-70
2021/01/13 08:40:29;;;;;;;14.20;8.50;;;0.30;98.00;;;;;;5096558;28;20013;-69
2021/01/13 08:43:06;;;;;;;14.32;7.60;;;0.30;98.00;;;;;;5092340;28;20028;-71
2021/01/13 08:45:38;;;;;;;26.70;9.82;;;0.40;98.00;;;;;;5077716;28;20126;-69
2021/01/13 08:48:09;;;;;;;19.83;9.25;;;0.50;98.00;;;;;;5091454;28;20038;-71
2021/01/13 08:50:35;;;;;;;15.73;7.07;;;0.50;98.00;;;;;;5079765;28;20117;-70
2021/01/13 08:53:04;;;;;;;13.43;6.60;;;0.50;98.00;;;;;;5088172;28;20028;-69
2021/01/13 08:55:32;;;;;;;9.25;5.30;;;0.60;98.00;;;;;;5081379;28;20082;-70
2021/01/13 08:58:06;;;;;;;18.45;8.85;;;0.60;98.00;;;;;;5093634;28;20321;-69
2021/01/13 09:00:33;;;;;;;9.95;5.53;;;0.80;98.00;;;;;;5089739;28;20343;-70
2021/01/13 09:03:11;;;;;;;12.40;7.00;;;0.80;98.00;;;;;;5087978;28;20035;-69
2021/01/13 09:05:39;;;;;;;13.32;6.35;;;0.90;98.00;;;;;;5091040;28;20032;-71
2021/01/13 09:08:06;;;;;;;12.45;6.63;;;0.90;98.00;;;;;;5092740;28;20020;-70
2021/01/13 09:10:53;;;;;;;23.80;10.70;;;0.90;98.00;;;;;;5075521;28;20060;-70
2021/01/13 09:13:32;;;;;;;14.82;7.65;;;0.90;98.00;;;;;;5090746;28;20317;-71
2021/01/13 09:16:22;;;;;;;10.82;6.10;;;0.80;98.00;;;;;;5089477;28;20024;-70
2021/01/13 09:18:55;;;;;;;11.15;5.35;;;0.80;98.00;;;;;;5081964;28;20044;-70
2021/01/13 09:21:39;;;;;;;7.53;4.97;;;0.90;98.00;;;;;;5087367;28;20028;-71
2021/01/13 09:24:07;;;;;;;9.82;5.00;;;0.80;98.00;;;;;;5090444;28;20148;-71
2021/01/13 09:26:38;;;;;;;11.60;6.35;;;0.80;98.00;;;;;;5080562;28;20375;-70
2021/01/13 09:29:09;;;;;;;6.65;4.72;;;0.80;98.00;;;;;;5093777;28;20165;-70
2021/01/13 09:31:37;;;;;;;24.55;11.27;;;0.90;98.00;;;;;;5094332;28;20497;-69
2021/01/13 09:34:03;;;;;;;10.80;4.57;;;0.90;98.00;;;;;;5093874;28;20046;-70
2021/01/13 09:36:31;;;;;;;9.40;4.80;;;0.90;98.00;;;;;;5093164;28;20024;-72
2021/01/13 09:39:23;;;;;;;9.43;5.43;;;0.90;98.00;;;;;;5094589;28;20020;-70
2021/01/13 09:41:56;;;;;;;13.65;4.75;;;0.90;98.00;;;;;;5088448;28;20029;-71
2021/01/13 09:44:29;;;;;;;9.32;5.03;;;0.90;98.00;;;;;;5091848;28;20539;-72
2021/01/13 09:46:55;;;;;;;11.27;4.40;;;0.80;98.00;;;;;;5092011;28;20029;-71
2021/01/13 09:49:20;;;;;;;8.90;4.60;;;0.80;98.00;;;;;;5087519;28;20425;-71
2021/01/13 09:51:46;;;;;;;9.60;4.40;;;0.80;98.00;;;;;;5072329;28;20028;-71
2021/01/13 09:54:13;;;;;;;8.40;4.32;;;0.90;98.00;;;;;;5076006;28;20025;-71
2021/01/13 09:56:40;;;;;;;7.03;3.97;;;1.00;98.00;;;;;;5077741;28;20093;-71
2021/01/13 09:59:07;;;;;;;16.75;5.13;;;1.10;98.00;;;;;;5093863;28;20028;-71
2021/01/13 10:01:37;;;;;;;10.30;5.38;;;1.00;98.00;;;;;;5087536;28;20102;-71
2021/01/13 10:04:14;;;;;;;10.90;4.60;;;1.10;98.00;;;;;;5093484;28;20024;-70
2021/01/13 10:06:41;;;;;;;7.57;4.60;;;1.10;98.00;;;;;;5095517;28;20078;-70
2021/01/13 10:09:17;;;;;;;11.93;5.40;;;1.10;98.00;;;;;;5098939;28;20024;-69
2021/01/13 10:11:44;;;;;;;9.63;4.60;;;1.00;98.00;;;;;;5096553;28;20032;-70
2021/01/13 10:14:13;;;;;;;8.52;4.10;;;1.10;98.00;;;;;;5090823;28;20016;-71
2021/01/13 10:16:43;;;;;;;15.05;5.82;;;1.10;98.00;;;;;;5096867;28;20052;-70
2021/01/13 10:19:10;;;;;;;7.25;4.22;;;1.10;97.80;;;;;;5078924;28;20037;-70
2021/01/13 10:21:40;;;;;;;8.00;4.25;;;1.20;97.60;;;;;;5083936;28;20042;-71
2021/01/13 10:24:12;;;;;;;6.90;4.05;;;1.30;97.60;;;;;;5096553;28;20413;-69
2021/01/13 10:26:42;;;;;;;10.93;4.18;;;1.40;96.90;;;;;;5098456;28;20027;-70
2021/01/13 10:29:10;;;;;;;9.38;4.35;;;1.30;97.20;;;;;;5099521;28;20037;-68
2021/01/13 10:31:36;;;;;;;5.78;3.53;;;1.30;97.40;;;;;;5098966;28;20020;-70
2021/01/13 10:34:03;;;;;;;7.70;4.35;;;1.30;97.50;;;;;;5079462;28;20524;-71
2021/01/13 10:36:40;;;;;;;8.40;4.47;;;1.50;97.70;;;;;;5077721;28;20026;-71
2021/01/13 10:39:10;;;;;;;8.40;5.10;;;1.60;96.80;;;;;;5098221;28;20016;-71
2021/01/13 10:41:38;;;;;;;7.53;4.35;;;1.80;96.60;;;;;;5096298;28;20106;-69
2021/01/13 10:44:11;;;;;;;9.65;4.20;;;1.90;95.60;;;;;;5096465;28;20362;-72
2021/01/13 10:46:59;;;;;;;9.88;4.32;;;1.90;95.50;;;;;;5095195;28;20425;-72
2021/01/13 10:49:35;;;;;;;6.80;4.30;;;1.70;96.10;;;;;;5089781;28;20468;-71
2021/01/13 10:52:21;;;;;;;8.35;4.30;;;1.70;96.00;;;;;;5092694;28;20036;-70
2021/01/13 10:54:54;;;;;;;7.22;4.70;;;1.70;96.60;;;;;;5084268;28;20039;-70
2021/01/13 10:57:31;;;;;;;10.32;4.80;;;1.60;96.00;;;;;;5086201;28;20501;-72
2021/01/13 11:00:08;;;;;;;18.60;3.95;;;1.60;96.80;;;;;;5091455;28;20474;-71
2021/01/13 11:02:35;;;;;;;12.13;4.78;;;1.50;96.40;;;;;;5077028;28;20078;-71
2021/01/13 11:05:02;;;;;;;9.00;3.53;;;1.60;96.50;;;;;;5081289;28;20343;-70
2021/01/13 11:07:43;;;;;;;8.48;4.63;;;1.90;95.90;;;;;;5076896;28;20021;-70
2021/01/13 11:10:11;;;;;;;9.90;4.90;;;2.00;95.40;;;;;;5095426;28;20028;-70
2021/01/13 11:12:37;;;;;;;14.43;5.78;;;2.30;94.90;;;;;;5096914;28;20111;-71
2021/01/13 11:15:10;;;;;;;6.72;3.67;;;2.50;93.80;;;;;;5092569;28;20039;-71
2021/01/13 11:17:37;;;;;;;6.97;4.35;;;2.80;92.60;;;;;;5093618;28;20040;-71
2021/01/13 11:20:09;;;;;;;7.85;4.97;;;2.90;91.90;;;;;;5083395;28;20029;-70
2021/01/13 11:22:44;;;;;;;12.18;4.35;;;2.90;92.40;;;;;;5076374;28;20432;-71
2021/01/13 11:25:27;;;;;;;9.80;3.72;;;2.80;91.80;;;;;;5086268;28;20047;-71
2021/01/13 11:28:00;;;;;;;10.80;4.25;;;2.80;91.40;;;;;;5078169;28;20115;-72
2021/01/13 11:30:29;;;;;;;7.57;3.93;;;3.30;91.10;;;;;;5085641;28;20101;-71
2021/01/13 11:33:03;;;;;;;6.85;2.90;;;3.70;89.90;;;;;;5095615;28;20028;-72
2021/01/13 11:35:37;;;;;;;11.15;4.72;;;4.10;88.30;;;;;;5085509;28;20027;-71
2021/01/13 11:38:41;;;;;;;7.35;3.03;;;4.40;86.60;;;;;;5089235;28;20059;-72
2021/01/13 11:41:34;;;;;;;9.02;3.25;;;4.20;85.60;;;;;;5089293;28;20083;-70
2021/01/13 11:44:29;;;;;;;7.20;4.45;;;3.60;85.90;;;;;;5096880;28;20024;-72
2021/01/13 11:46:57;;;;;;;;;;;2.80;89.60;;;;;;5087161;28;20032;-70
2021/01/13 11:49:26;;;;;;;7.10;3.83;;;2.40;91.20;;;;;;5080503;28;19909;-72
2021/01/13 11:51:53;;;;;;;7.97;3.20;;;2.80;91.70;;;;;;5078873;28;20035;-70
2021/01/13 11:54:30;;;;;;;5.43;3.35;;;3.50;89.60;;;;;;5077248;28;20028;-72
2021/01/13 11:57:28;;;;;;;6.68;3.17;;;3.90;86.80;;;;;;5077622;28;20031;-71
2021/01/13 12:00:38;;;;;;;10.23;3.08;;;3.70;87.10;;;;;;5082857;28;20021;-72
2021/01/13 12:03:04;;;;;;;7.82;3.53;;;3.60;86.80;;;;;;5094671;28;20041;-70
2021/01/13 12:05:34;;;;;;;8.55;3.03;;;3.30;87.40;;;;;;5095288;28;20027;-71
2021/01/13 12:08:01;;;;;;;8.75;3.35;;;2.60;89.40;;;;;;5080721;28;20041;-70
2021/01/13 12:11:01;;;;;;;4.85;2.38;;;2.10;91.30;;;;;;5075834;28;20093;-70
2021/01/13 12:13:30;;;;;;;5.65;3.28;;;1.90;92.00;;;;;;5093732;28;20039;-71
2021/01/13 12:16:05;;;;;;;7.85;4.25;;;1.70;93.20;;;;;;5080717;28;20021;-71
2021/01/13 12:18:33;;;;;;;7.68;4.38;;;2.00;92.70;;;;;;5091044;28;20135;-71
2021/01/13 12:21:21;;;;;;;10.30;2.83;;;2.00;91.70;;;;;;5081952;28;20032;-71
2021/01/13 12:23:50;;;;;;;7.80;4.00;;;2.10;91.10;;;;;;5076011;28;20033;-70
2021/01/13 12:26:18;;;;;;;7.18;4.13;;;2.00;90.50;;;;;;5089935;28;20051;-70
2021/01/13 12:28:52;;;;;;;7.97;3.65;;;1.70;91.70;;;;;;5096569;28;20042;-70
2021/01/13 12:31:22;;;;;;;8.30;3.75;;;1.70;92.20;;;;;;5086203;28;20025;-72
2021/01/13 12:33:57;;;;;;;5.20;2.90;;;1.60;91.90;;;;;;5077759;28;20050;-72
2021/01/13 12:36:28;;;;;;;9.48;3.67;;;1.30;92.30;;;;;;5078079;28;20019;-72
2021/01/13 12:38:56;;;;;;;7.07;3.03;;;1.40;93.10;;;;;;5082568;28;20025;-72
2021/01/13 12:41:28;;;;;;;6.40;3.88;;;2.10;91.00;;;;;;5082221;28;20039;-72
2021/01/13 12:43:56;;;;;;;8.93;4.45;;;2.80;89.50;;;;;;5082095;28;20038;-72
2021/01/13 12:46:30;;;;;;;7.28;4.05;;;2.80;86.90;;;;;;5081901;28;20430;-72
2021/01/13 12:48:58;;;;;;;9.63;5.07;;;2.70;88.20;;;;;;5086177;28;20482;-72
2021/01/13 12:51:23;;;;;;;11.13;4.70;;;3.10;88.20;;;;;;5086830;28;20082;-72
2021/01/13 12:53:53;;;;;;;10.95;4.18;;;3.40;86.40;;;;;;5095396;28;20411;-72
2021/01/13 12:56:32;;;;;;;10.20;3.53;;;3.40;85.00;;;;;;5078268;28;20028;-72
2021/01/13 12:59:02;;;;;;;6.75;3.28;;;2.60;86.00;;;;;;5080763;28;20049;-71
2021/01/13 13:01:35;;;;;;;6.30;3.50;;;2.40;87.40;;;;;;5075664;28;20130;-71
2021/01/13 13:04:01;;;;;;;7.63;4.32;;;2.30;87.20;;;;;;5075423;28;20025;-71
2021/01/13 13:06:32;;;;;;;9.38;2.83;;;2.70;87.20;;;;;;5074416;28;20085;-71
2021/01/13 13:09:00;;;;;;;11.00;4.88;;;3.00;85.90;;;;;;5074018;28;20032;-72
2021/01/13 13:11:27;;;;;;;5.75;2.88;;;3.10;85.20;;;;;;5089408;28;20095;-71
2021/01/13 13:13:54;;;;;;;5.07;2.80;;;3.10;84.50;;;;;;5075669;28;20087;-71